createdAt,value
2022-08-26T00:01:44.267Z,64.68
2022-08-26T00:04:12.622Z,64.81
2022-08-26T00:06:42.697Z,64.93
2022-08-26T00:09:16.261Z,64.97
2022-08-26T00:11:47.345Z,64.89
2022-08-26T00:14:14.715Z,64.99
2022-08-26T00:16:47.545Z,65.01
2022-08-26T00:19:18.081Z,65.14
2022-08-26T00:21:45.375Z,65.41
2022-08-26T00:24:13.443Z,65.36
2022-08-26T00:26:41.379Z,65.22
2022-08-26T00:29:08.558Z,65.62
2022-08-26T00:31:36.437Z,66.12
2022-08-26T00:34:04.234Z,66.28
2022-08-26T00:36:32.278Z,66.34
2022-08-26T00:38:59.435Z,66.43
2022-08-26T00:41:26.675Z,66.50
2022-08-26T00:43:54.643Z,66.74
2022-08-26T00:46:23.708Z,66.59
2022-08-26T00:48:52.785Z,66.80
2022-08-26T00:51:25.161Z,66.95
2022-08-26T00:53:59.052Z,67.27
2022-08-26T00:56:29.882Z,67.69
2022-08-26T00:58:59.183Z,67.65
2022-08-26T01:01:28.451Z,67.70
2022-08-26T01:03:58.057Z,67.83
2022-08-26T01:06:25.259Z,67.64
2022-08-26T01:08:52.872Z,67.83
2022-08-26T01:11:20.288Z,67.81
2022-08-26T01:13:48.365Z,67.84
2022-08-26T01:16:17.040Z,67.80
2022-08-26T01:18:44.790Z,67.87
2022-08-26T01:21:19.247Z,68.10
2022-08-26T01:23:48.176Z,68.13
2022-08-26T01:26:27.307Z,68.04
2022-08-26T01:28:56.800Z,68.09
2022-08-26T01:31:25.443Z,68.29
2022-08-26T01:34:18.554Z,68.16
2022-08-26T01:36:51.432Z,68.45
2022-08-26T01:39:18.642Z,68.38
2022-08-26T01:41:46.238Z,67.35
2022-08-26T01:44:19.231Z,66.87
2022-08-26T01:46:46.777Z,66.68
2022-08-26T01:49:15.498Z,66.65
2022-08-26T01:51:44.565Z,66.27
2022-08-26T01:54:13.906Z,65.84
2022-08-26T01:56:41.184Z,65.67
2022-08-26T01:59:10.760Z,65.79
2022-08-26T02:01:39.447Z,66.07
2022-08-26T02:04:24.722Z,67.90
2022-08-26T02:06:51.977Z,69.35
2022-08-26T02:09:20.751Z,69.49
2022-08-26T02:11:48.579Z,69.66
2022-08-26T02:14:22.941Z,69.64
2022-08-26T02:16:54.668Z,69.67
2022-08-26T02:19:32.941Z,69.60
2022-08-26T02:22:01.546Z,68.72
2022-08-26T02:24:30.338Z,68.72
2022-08-26T02:26:58.404Z,68.54
2022-08-26T02:29:34.765Z,68.05
2022-08-26T02:32:01.787Z,67.30
2022-08-26T02:34:32.944Z,66.21
2022-08-26T02:37:01.324Z,65.89
2022-08-26T02:39:29.779Z,65.58
2022-08-26T02:41:56.815Z,65.90
2022-08-26T02:44:23.812Z,66.10
2022-08-26T02:46:54.179Z,66.77
2022-08-26T02:49:21.657Z,67.64
2022-08-26T02:51:49.729Z,68.33
2022-08-26T02:54:17.929Z,68.69
2022-08-26T02:56:45.522Z,68.49
2022-08-26T02:59:15.591Z,68.49
2022-08-26T03:01:42.784Z,67.84
2022-08-26T03:04:10.968Z,67.97
2022-08-26T03:06:40.772Z,68.59
2022-08-26T03:09:08.927Z,69.52
2022-08-26T03:11:36.999Z,69.92
2022-08-26T03:14:03.996Z,70.16
2022-08-26T03:16:32.530Z,70.73
2022-08-26T03:18:59.922Z,70.27
2022-08-26T03:21:27.245Z,70.17
2022-08-26T03:23:54.159Z,70.57
2022-08-26T03:26:25.470Z,71.00
2022-08-26T03:29:10.741Z,70.97
2022-08-26T03:31:37.683Z,71.00
2022-08-26T03:34:04.821Z,71.08
2022-08-26T03:36:31.776Z,70.36
2022-08-26T03:39:01.929Z,70.14
2022-08-26T03:41:29.272Z,70.24
2022-08-26T03:44:00.952Z,70.43
2022-08-26T03:46:28.559Z,71.12
2022-08-26T03:48:55.719Z,71.55
2022-08-26T03:51:22.610Z,71.79
2022-08-26T03:53:51.145Z,71.50
2022-08-26T03:56:17.993Z,71.50
2022-08-26T03:58:44.920Z,71.18
2022-08-26T04:01:13.385Z,71.18
2022-08-26T04:04:00.317Z,71.02
2022-08-26T04:06:40.026Z,70.62
2022-08-26T04:09:10.064Z,70.49
2022-08-26T04:11:39.564Z,70.16
2022-08-26T04:14:08.031Z,70.42
2022-08-26T04:16:35.363Z,70.68
2022-08-26T04:19:02.364Z,70.42
2022-08-26T04:21:29.254Z,70.58
2022-08-26T04:23:56.445Z,70.33
2022-08-26T04:26:25.783Z,70.50
2022-08-26T04:28:54.725Z,70.30
2022-08-26T04:31:21.885Z,70.23
2022-08-26T04:33:50.096Z,70.08
2022-08-26T04:36:17.662Z,70.01
2022-08-26T04:38:47.755Z,70.00
2022-08-26T04:41:15.455Z,70.06
2022-08-26T04:43:44.473Z,70.19
2022-08-26T04:46:14.685Z,70.15
2022-08-26T04:48:43.686Z,70.25
2022-08-26T04:51:10.999Z,70.36
2022-08-26T04:53:38.000Z,70.23
2022-08-26T04:56:05.222Z,70.12
2022-08-26T04:58:32.315Z,69.99
2022-08-26T05:00:59.954Z,70.28
2022-08-26T05:03:30.554Z,70.28
2022-08-26T05:05:58.464Z,70.52
2022-08-26T05:08:25.504Z,70.25
2022-08-26T05:10:56.489Z,69.99
2022-08-26T05:13:25.266Z,69.84
2022-08-26T05:15:52.497Z,69.72
2022-08-26T05:18:22.778Z,69.25
2022-08-26T05:20:51.322Z,69.15
2022-08-26T05:23:23.432Z,68.81
2022-08-26T05:25:53.617Z,68.71
2022-08-26T05:28:23.494Z,68.65
2022-08-26T05:30:50.345Z,68.73
2022-08-26T05:33:17.604Z,68.65
2022-08-26T05:35:44.921Z,68.24
2022-08-26T05:38:13.422Z,68.48
2022-08-26T05:40:42.037Z,68.76
2022-08-26T05:43:10.690Z,67.95
2022-08-26T05:45:43.539Z,67.60
2022-08-26T05:48:13.276Z,67.70
2022-08-26T05:50:44.687Z,67.09
2022-08-26T05:53:12.829Z,66.99
2022-08-26T05:55:44.136Z,66.77
2022-08-26T05:58:11.573Z,66.70
2022-08-26T06:00:39.515Z,66.58
2022-08-26T06:03:09.192Z,67.96
2022-08-26T06:05:39.806Z,68.15
2022-08-26T06:08:16.362Z,68.19
2022-08-26T06:10:54.034Z,68.44
2022-08-26T06:13:22.527Z,68.04
2022-08-26T06:15:51.130Z,67.91
2022-08-26T06:18:20.276Z,67.31
2022-08-26T06:20:57.354Z,67.17
2022-08-26T06:23:44.331Z,67.03
2022-08-26T06:26:12.279Z,67.14
2022-08-26T06:28:39.495Z,66.65
2022-08-26T06:31:06.441Z,66.06
2022-08-26T06:33:33.710Z,64.35
2022-08-26T06:36:01.290Z,62.52
2022-08-26T06:38:28.817Z,60.49
2022-08-26T06:40:59.356Z,61.25
2022-08-26T06:43:27.601Z,60.75
2022-08-26T06:46:04.856Z,60.78
2022-08-26T06:48:32.330Z,60.46
2022-08-26T06:51:03.725Z,60.09
2022-08-26T06:53:30.744Z,60.45
2022-08-26T06:55:57.853Z,60.39
2022-08-26T06:58:25.022Z,60.69
2022-08-26T07:00:51.877Z,61.73
2022-08-26T07:03:19.334Z,61.16
2022-08-26T07:05:46.498Z,60.65
2022-08-26T07:08:16.289Z,59.84
2022-08-26T07:10:44.040Z,58.30
2022-08-26T07:13:12.546Z,57.22
2022-08-26T07:15:40.061Z,56.07
2022-08-26T07:18:09.242Z,54.68
2022-08-26T07:20:40.589Z,54.75
2022-08-26T07:23:11.639Z,54.41
2022-08-26T07:25:40.076Z,54.10
2022-08-26T07:28:07.530Z,53.21
2022-08-26T07:30:39.846Z,52.98
2022-08-26T07:33:07.887Z,52.61
2022-08-26T07:35:35.575Z,53.05
2022-08-26T07:38:02.631Z,53.09
2022-08-26T07:40:30.259Z,53.32
2022-08-26T07:42:58.134Z,53.22
2022-08-26T07:45:27.898Z,53.17
2022-08-26T07:47:55.290Z,53.12
2022-08-26T07:50:49.279Z,52.57
2022-08-26T07:53:10.803Z,52.43
2022-08-26T07:55:37.828Z,52.17
2022-08-26T07:58:05.882Z,51.92
2022-08-26T08:00:33.830Z,51.30
2022-08-26T08:03:01.454Z,50.15
2022-08-26T08:05:33.702Z,49.25
2022-08-26T08:08:26.988Z,48.72
2022-08-26T08:10:49.024Z,49.80
2022-08-26T08:13:16.001Z,49.43
2022-08-26T08:15:43.194Z,49.55
2022-08-26T08:18:15.530Z,48.22
2022-08-26T08:20:47.668Z,48.40
2022-08-26T08:23:26.369Z,48.24
2022-08-26T08:26:01.632Z,47.84
2022-08-26T08:28:28.732Z,46.92
2022-08-26T08:30:56.646Z,45.69
2022-08-26T08:33:23.736Z,46.64
2022-08-26T08:35:50.622Z,46.68
2022-08-26T08:38:17.550Z,46.51
2022-08-26T08:40:45.259Z,47.17
2022-08-26T08:43:16.822Z,46.91
2022-08-26T08:45:49.723Z,46.38
2022-08-26T08:48:28.138Z,45.46
2022-08-26T08:51:07.974Z,45.40
2022-08-26T08:53:38.078Z,45.28
2022-08-26T08:56:12.714Z,44.40
2022-08-26T08:58:59.094Z,44.43
2022-08-26T09:01:41.601Z,43.30
2022-08-26T09:04:34.949Z,41.63
2022-08-26T09:07:02.951Z,38.88
2022-08-26T09:09:46.394Z,39.14
2022-08-26T09:12:15.759Z,39.40
2022-08-26T09:14:44.065Z,39.07
2022-08-26T09:17:31.800Z,39.54
2022-08-26T09:20:06.314Z,38.26
2022-08-26T09:22:36.114Z,36.52
2022-08-26T09:25:05.399Z,36.56
2022-08-26T09:27:37.769Z,36.64
2022-08-26T09:30:05.723Z,35.69
2022-08-26T09:32:33.198Z,34.71
2022-08-26T09:35:02.037Z,35.25
2022-08-26T09:37:40.399Z,32.08
2022-08-26T09:40:40.107Z,33.92
2022-08-26T09:43:22.387Z,33.21
2022-08-26T09:45:59.065Z,31.08
2022-08-26T09:48:29.206Z,30.76
2022-08-26T09:50:58.120Z,31.92
2022-08-26T09:53:28.713Z,31.51
2022-08-26T09:56:15.386Z,31.77
2022-08-26T09:58:44.255Z,33.41
2022-08-26T10:01:30.129Z,32.32
2022-08-26T10:04:04.722Z,32.89
2022-08-26T10:06:34.732Z,32.25
2022-08-26T10:09:08.247Z,32.23
2022-08-26T10:12:06.636Z,32.70
2022-08-26T10:14:38.205Z,31.25
2022-08-26T10:17:11.405Z,30.98
2022-08-26T10:19:56.721Z,30.42
2022-08-26T10:22:44.789Z,30.34
2022-08-26T10:25:14.003Z,28.82
2022-08-26T10:27:52.635Z,29.26
2022-08-26T10:30:21.702Z,29.06
2022-08-26T10:33:08.123Z,28.98
2022-08-26T10:35:36.442Z,30.39
2022-08-26T10:38:13.324Z,29.41
2022-08-26T10:41:03.542Z,28.65
2022-08-26T10:43:41.385Z,27.30
2022-08-26T10:46:10.671Z,27.57
2022-08-26T10:48:47.571Z,28.59
2022-08-26T10:51:16.125Z,28.65
2022-08-26T10:53:57.471Z,27.74
2022-08-26T10:56:42.918Z,27.01
2022-08-26T10:59:36.843Z,27.47
2022-08-26T11:02:33.127Z,26.04
2022-08-26T11:05:05.736Z,26.28
2022-08-26T11:07:46.364Z,25.31
2022-08-26T11:10:39.691Z,25.92
2022-08-26T11:13:10.684Z,25.34
2022-08-26T11:16:01.368Z,23.85
2022-08-26T11:18:41.813Z,22.96
2022-08-26T11:21:29.722Z,23.96
2022-08-26T11:23:57.519Z,24.38
2022-08-26T11:26:35.433Z,24.69
2022-08-26T11:29:12.865Z,24.57
2022-08-26T11:31:48.910Z,24.15
2022-08-26T11:34:15.857Z,24.57
2022-08-26T11:36:55.567Z,24.59
2022-08-26T11:39:30.461Z,24.39
2022-08-26T11:42:03.508Z,23.17
2022-08-26T11:44:39.560Z,21.30
2022-08-26T11:47:11.552Z,20.79
2022-08-26T11:49:38.738Z,21.43
2022-08-26T11:52:32.089Z,21.24
2022-08-26T11:55:07.201Z,20.21
2022-08-26T11:57:37.842Z,19.78
2022-08-26T12:00:07.405Z,20.26
2022-08-26T12:02:43.403Z,20.15
2022-08-26T12:05:23.950Z,19.51
2022-08-26T12:07:57.105Z,19.93
2022-08-26T12:10:31.093Z,19.69
2022-08-26T12:12:59.662Z,19.43
2022-08-26T12:15:29.652Z,19.83
2022-08-26T12:17:56.962Z,18.65
2022-08-26T12:20:46.623Z,18.99
2022-08-26T12:23:32.087Z,18.59
2022-08-26T12:26:04.859Z,19.17
2022-08-26T12:28:31.857Z,18.66
2022-08-26T12:30:59.567Z,17.83
2022-08-26T12:33:28.133Z,16.32
2022-08-26T12:35:56.233Z,16.63
2022-08-26T12:38:25.052Z,16.91
2022-08-26T12:40:52.003Z,17.53
2022-08-26T12:43:41.871Z,17.28
2022-08-26T12:46:18.637Z,17.05
2022-08-26T12:48:49.130Z,16.82
2022-08-26T12:51:20.219Z,16.93
2022-08-26T12:53:47.324Z,16.98
2022-08-26T12:56:28.042Z,16.93
2022-08-26T12:59:03.349Z,17.08
2022-08-26T13:01:38.162Z,17.30
2022-08-26T13:04:06.787Z,17.10
2022-08-26T13:06:35.134Z,18.00
2022-08-26T13:09:06.112Z,19.31
2022-08-26T13:11:55.819Z,18.76
2022-08-26T13:14:24.714Z,18.69
2022-08-26T13:16:52.455Z,18.35
2022-08-26T13:19:20.975Z,18.14
2022-08-26T13:21:49.325Z,17.33
2022-08-26T13:24:26.300Z,17.55
2022-08-26T13:26:54.329Z,16.93
2022-08-26T13:29:21.475Z,16.99
2022-08-26T13:31:48.708Z,16.73
2022-08-26T13:34:18.289Z,17.37
2022-08-26T13:36:45.869Z,17.02
2022-08-26T13:39:13.132Z,17.52
2022-08-26T13:41:40.211Z,16.91
2022-08-26T13:44:07.251Z,16.40
2022-08-26T13:46:34.440Z,16.91
2022-08-26T13:49:01.393Z,17.21
2022-08-26T13:51:28.471Z,16.08
2022-08-26T13:53:55.502Z,16.26
2022-08-26T13:56:23.246Z,16.31
2022-08-26T13:58:50.356Z,16.10
2022-08-26T14:01:17.694Z,15.90
2022-08-26T14:03:44.908Z,16.50
2022-08-26T14:06:12.375Z,17.47
2022-08-26T14:08:39.961Z,18.17
2022-08-26T14:11:06.966Z,18.27
2022-08-26T14:13:34.179Z,18.62
2022-08-26T14:16:02.183Z,18.14
2022-08-26T14:18:32.344Z,18.19
2022-08-26T14:20:59.625Z,18.45
2022-08-26T14:23:26.739Z,17.46
2022-08-26T14:25:53.779Z,17.87
2022-08-26T14:28:20.862Z,17.07
2022-08-26T14:30:51.170Z,16.74
2022-08-26T14:33:19.992Z,16.91
2022-08-26T14:35:47.986Z,17.16
2022-08-26T14:38:16.670Z,16.63
2022-08-26T14:40:47.373Z,17.21
2022-08-26T14:43:15.594Z,17.84
2022-08-26T14:45:43.916Z,18.13
2022-08-26T14:48:11.275Z,18.26
2022-08-26T14:50:38.473Z,18.76
2022-08-26T14:53:23.680Z,19.24
2022-08-26T14:55:50.766Z,19.44
2022-08-26T14:58:17.832Z,19.26
2022-08-26T15:00:44.796Z,19.77
2022-08-26T15:03:11.787Z,19.68
2022-08-26T15:05:40.055Z,19.53
2022-08-26T15:08:10.668Z,19.45
2022-08-26T15:10:37.828Z,18.99
2022-08-26T15:13:04.818Z,19.17
2022-08-26T15:15:31.727Z,18.89
2022-08-26T15:17:58.604Z,19.19
2022-08-26T15:20:25.578Z,19.04
2022-08-26T15:22:52.556Z,19.32
2022-08-26T15:25:20.575Z,19.43
2022-08-26T15:27:47.433Z,19.20
2022-08-26T15:30:14.533Z,18.86
2022-08-26T15:32:41.543Z,18.99
2022-08-26T15:35:09.248Z,19.61
2022-08-26T15:37:36.649Z,19.78
2022-08-26T15:40:04.999Z,19.49
2022-08-26T15:42:32.026Z,19.71
2022-08-26T15:44:58.902Z,19.25
2022-08-26T15:47:25.741Z,20.44
2022-08-26T15:49:52.643Z,19.40
2022-08-26T15:52:19.545Z,20.28
2022-08-26T15:54:46.391Z,19.84
2022-08-26T15:57:15.355Z,19.71
2022-08-26T15:59:43.382Z,19.16
2022-08-26T16:02:10.685Z,18.77
2022-08-26T16:04:37.841Z,18.38
2022-08-26T16:07:04.843Z,18.28
2022-08-26T16:09:31.744Z,17.55
2022-08-26T16:11:58.731Z,17.09
2022-08-26T16:14:25.799Z,16.51
2022-08-26T16:16:53.585Z,16.63
2022-08-26T16:19:20.605Z,16.90
2022-08-26T16:21:48.212Z,17.07
2022-08-26T16:24:15.150Z,16.67
2022-08-26T16:26:42.489Z,17.31
2022-08-26T16:29:10.899Z,17.84
2022-08-26T16:31:38.481Z,18.08
2022-08-26T16:34:06.320Z,18.22
2022-08-26T16:36:33.807Z,18.97
2022-08-26T16:39:00.734Z,19.74
2022-08-26T16:41:29.593Z,19.68
2022-08-26T16:43:56.627Z,20.41
2022-08-26T16:46:25.833Z,20.80
2022-08-26T16:48:53.924Z,21.79
2022-08-26T16:51:24.353Z,22.60
2022-08-26T16:53:51.784Z,23.36
2022-08-26T16:56:20.389Z,23.89
2022-08-26T16:58:48.545Z,24.16
2022-08-26T17:01:16.219Z,24.58
2022-08-26T17:03:43.276Z,25.31
2022-08-26T17:06:10.703Z,25.37
2022-08-26T17:08:38.343Z,25.98
2022-08-26T17:11:05.744Z,26.45
2022-08-26T17:13:35.192Z,26.87
2022-08-26T17:16:04.453Z,26.81
2022-08-26T17:18:31.432Z,27.33
2022-08-26T17:21:01.072Z,27.78
2022-08-26T17:23:27.945Z,28.24
2022-08-26T17:25:54.804Z,28.46
2022-08-26T17:28:21.662Z,28.49
2022-08-26T17:30:48.622Z,28.89
2022-08-26T17:33:17.097Z,28.92
2022-08-26T17:35:46.828Z,29.17
2022-08-26T17:38:13.743Z,29.15
2022-08-26T17:40:40.555Z,29.18
2022-08-26T17:43:12.073Z,29.53
2022-08-26T17:45:40.482Z,30.06
2022-08-26T17:48:08.121Z,30.17
2022-08-26T17:50:35.793Z,30.63
2022-08-26T17:53:02.745Z,30.73
2022-08-26T17:55:29.741Z,30.87
2022-08-26T17:57:56.574Z,31.13
2022-08-26T18:00:26.746Z,31.29
2022-08-26T18:02:54.196Z,31.59
2022-08-26T18:05:21.978Z,32.22
2022-08-26T18:07:48.979Z,33.16
2022-08-26T18:10:17.105Z,34.12
2022-08-26T18:12:44.079Z,35.08
2022-08-26T18:15:11.447Z,35.65
2022-08-26T18:17:41.831Z,35.79
2022-08-26T18:20:09.832Z,36.01
2022-08-26T18:22:36.774Z,36.42
2022-08-26T18:25:05.164Z,36.47
2022-08-26T18:27:31.962Z,36.33
2022-08-26T18:29:58.977Z,36.40
2022-08-26T18:32:25.818Z,36.65
2022-08-26T18:34:52.711Z,36.43
2022-08-26T18:37:19.570Z,37.47
2022-08-26T18:39:46.661Z,37.89
2022-08-26T18:42:13.516Z,39.15
2022-08-26T18:44:40.524Z,39.29
2022-08-26T18:47:07.653Z,39.81
2022-08-26T18:49:34.939Z,39.62
2022-08-26T18:52:01.847Z,39.72
2022-08-26T18:54:29.391Z,39.84
2022-08-26T18:56:56.520Z,39.79
2022-08-26T18:59:29.582Z,39.94
2022-08-26T19:01:57.690Z,39.89
2022-08-26T19:04:24.737Z,39.85
2022-08-26T19:06:52.139Z,40.46
2022-08-26T19:09:19.291Z,40.61
2022-08-26T19:11:49.631Z,40.97
2022-08-26T19:14:16.918Z,41.60
2022-08-26T19:16:44.779Z,41.81
2022-08-26T19:19:11.669Z,42.15
2022-08-26T19:21:39.258Z,42.55
2022-08-26T19:24:08.890Z,42.55
2022-08-26T19:26:36.721Z,42.85
2022-08-26T19:29:03.687Z,42.93
2022-08-26T19:31:31.363Z,42.77
2022-08-26T19:33:59.152Z,42.76
2022-08-26T19:36:27.392Z,42.95
2022-08-26T19:38:54.660Z,42.74
2022-08-26T19:41:26.574Z,42.96
2022-08-26T19:44:04.721Z,42.93
2022-08-26T19:46:32.415Z,42.91
2022-08-26T19:48:59.408Z,42.51
2022-08-26T19:51:31.626Z,42.53
2022-08-26T19:53:59.732Z,42.92
2022-08-26T19:56:27.098Z,43.09
2022-08-26T19:58:54.610Z,43.50
2022-08-26T20:01:22.017Z,43.31
2022-08-26T20:03:49.240Z,43.07
2022-08-26T20:06:16.750Z,43.13
2022-08-26T20:08:44.471Z,42.96
2022-08-26T20:11:15.974Z,43.30
2022-08-26T20:13:43.499Z,42.93
2022-08-26T20:16:12.203Z,43.33
2022-08-26T20:19:00.693Z,43.38
2022-08-26T20:21:28.136Z,43.47
2022-08-26T20:24:06.081Z,44.13
2022-08-26T20:26:36.843Z,44.27
2022-08-26T20:29:04.730Z,44.87
2022-08-26T20:31:31.868Z,45.47
2022-08-26T20:33:58.865Z,45.08
2022-08-26T20:36:27.231Z,45.44
2022-08-26T20:38:54.757Z,45.72
2022-08-26T20:41:22.251Z,45.72
2022-08-26T20:43:49.396Z,45.56
2022-08-26T20:46:17.345Z,45.83
2022-08-26T20:48:46.018Z,45.95
2022-08-26T20:51:12.857Z,45.96
2022-08-26T20:53:39.931Z,46.08
2022-08-26T20:56:07.761Z,45.95
2022-08-26T20:58:34.981Z,46.17
2022-08-26T21:01:07.287Z,46.35
2022-08-26T21:03:35.130Z,46.44
2022-08-26T21:06:02.043Z,46.41
2022-08-26T21:08:28.843Z,47.39
2022-08-26T21:10:55.828Z,47.89
2022-08-26T21:13:23.108Z,48.13
2022-08-26T21:15:50.033Z,48.75
2022-08-26T21:18:17.220Z,49.53
2022-08-26T21:20:44.427Z,49.75
2022-08-26T21:23:11.351Z,49.71
2022-08-26T21:25:38.299Z,49.41
2022-08-26T21:28:05.177Z,49.20
2022-08-26T21:30:32.184Z,49.18
2022-08-26T21:32:59.084Z,48.85
2022-08-26T21:35:25.963Z,48.67
2022-08-26T21:37:52.781Z,48.90
2022-08-26T21:40:19.768Z,48.90
2022-08-26T21:42:46.627Z,48.84
2022-08-26T21:45:14.927Z,49.74
2022-08-26T21:47:42.007Z,49.59
2022-08-26T21:50:09.309Z,49.74
2022-08-26T21:52:39.484Z,50.20
2022-08-26T21:55:08.777Z,50.79
2022-08-26T21:57:36.592Z,51.07
2022-08-26T22:00:04.710Z,51.57
2022-08-26T22:02:32.918Z,51.78
2022-08-26T22:05:00.022Z,51.95
2022-08-26T22:07:26.953Z,51.88
2022-08-26T22:09:53.943Z,52.09
2022-08-26T22:12:20.924Z,52.15
2022-08-26T22:14:48.200Z,52.12
2022-08-26T22:17:15.655Z,52.08
2022-08-26T22:19:46.420Z,52.12
2022-08-26T22:22:14.201Z,52.24
2022-08-26T22:24:41.211Z,52.51
2022-08-26T22:27:08.067Z,52.67
2022-08-26T22:29:35.056Z,52.83
2022-08-26T22:32:02.003Z,52.85
2022-08-26T22:34:28.912Z,53.11
2022-08-26T22:36:56.249Z,53.28
2022-08-26T22:39:24.094Z,53.24
2022-08-26T22:41:51.650Z,53.20
2022-08-26T22:44:19.371Z,53.29
2022-08-26T22:46:46.703Z,53.40
2022-08-26T22:49:16.580Z,53.43
2022-08-26T22:51:44.140Z,53.95
2022-08-26T22:54:11.173Z,53.99
2022-08-26T22:56:38.377Z,54.42
2022-08-26T22:59:06.909Z,54.70
2022-08-26T23:01:35.853Z,54.57
2022-08-26T23:04:03.029Z,54.56
2022-08-26T23:06:30.119Z,54.66
2022-08-26T23:08:56.989Z,54.58
2022-08-26T23:11:23.891Z,54.42
2022-08-26T23:13:50.859Z,54.29
2022-08-26T23:16:17.927Z,54.32
2022-08-26T23:18:44.830Z,54.44
2022-08-26T23:21:11.782Z,54.46
2022-08-26T23:23:38.772Z,54.51
2022-08-26T23:26:07.169Z,54.66
2022-08-26T23:28:35.187Z,54.61
2022-08-26T23:31:02.117Z,54.71
2022-08-26T23:33:48.963Z,54.75
2022-08-26T23:36:18.147Z,55.06
2022-08-26T23:38:52.401Z,55.53
2022-08-26T23:41:21.488Z,55.53
2022-08-26T23:43:48.356Z,55.72
2022-08-26T23:46:15.381Z,55.86
2022-08-26T23:48:42.445Z,55.75
2022-08-26T23:51:28.491Z,55.86
2022-08-26T23:53:55.423Z,55.92
2022-08-26T23:56:22.311Z,56.03
2022-08-26T23:58:49.310Z,56.13
